Aviation Digital Data Service (ADDS)

Output produced by METARs form (1825 UTC 19 April 2019)
found at http://www.aviationweather.gov/metar/data/
 
Forecast for: DNSO (SOKOTO , NG)
Text: TAF DNSO 191530Z 1918/2024 12008KT CAVOK
Forecast period: 1800 UTC 19 April 2019 to 0000 UTC 21 April 2019
Forecast type: FROM: standard forecast or significant change
Winds: from the ESE (120 degrees) at 9 MPH (8 knots; 4.1 m/s)
Visibility: 6 or more miles 10+ km)
Ceiling: unknown
Clouds: missing
Weather: NSW  (no significant weather)
Text: TEMPO 2008/2012 3000 HZ
Forecast period: 0800 to 1200 UTC 20 April 2019
Forecast type: TEMPORARY: The following changes expected for less than half the time period
Visibility: 1.86 miles (2.99 km)
Ceiling: unknown
Clouds: missing
Weather: HZ  (haze)